createdAt,value
2023-05-19T00:01:00.498Z,102896.44
2023-05-19T00:03:27.294Z,102890.66
2023-05-19T00:05:54.197Z,102895.28
2023-05-19T00:08:23.831Z,102895.53
2023-05-19T00:10:50.876Z,102890.06
2023-05-19T00:13:17.609Z,102885.94
2023-05-19T00:15:44.499Z,102882.63
2023-05-19T00:18:13.968Z,102878.50
2023-05-19T00:20:41.331Z,102873.03
2023-05-19T00:23:08.464Z,102868.66
2023-05-19T00:25:35.001Z,102871.09
2023-05-19T00:28:02.509Z,102868.63
2023-05-19T00:30:30.261Z,102868.84
2023-05-19T00:32:57.062Z,102867.72
2023-05-19T00:35:24.227Z,102866.03
2023-05-19T00:37:50.809Z,102864.41
2023-05-19T00:40:17.457Z,102869.56
2023-05-19T00:42:44.010Z,102862.44
2023-05-19T00:45:10.676Z,102873.34
2023-05-19T00:47:37.300Z,102872.78
2023-05-19T00:50:03.960Z,102868.66
2023-05-19T00:52:30.757Z,102872.75
2023-05-19T00:54:57.307Z,102871.09
2023-05-19T00:57:24.094Z,102863.41
2023-05-19T00:59:50.820Z,102868.06
2023-05-19T01:02:18.054Z,102860.63
2023-05-19T01:04:45.091Z,102867.72
2023-05-19T01:07:12.747Z,102871.53
2023-05-19T01:09:40.727Z,102864.66
2023-05-19T01:12:08.689Z,102870.91
2023-05-19T01:14:35.427Z,102872.81
2023-05-19T01:17:15.081Z,102874.72
2023-05-19T01:19:46.810Z,102872.75
2023-05-19T01:22:42.692Z,102874.09
2023-05-19T01:25:32.268Z,102873.53
2023-05-19T01:28:19.400Z,102876.22
2023-05-19T01:30:49.039Z,102864.72
2023-05-19T01:33:17.746Z,102863.56
2023-05-19T01:35:45.818Z,102863.00
2023-05-19T01:38:14.642Z,102858.66
2023-05-19T01:40:41.959Z,102854.22
2023-05-19T01:43:10.911Z,102849.53
2023-05-19T01:45:38.449Z,102856.09
2023-05-19T01:48:07.231Z,102850.63
2023-05-19T01:50:35.798Z,102855.25
2023-05-19T01:53:02.393Z,102854.13
2023-05-19T01:55:29.189Z,102857.63
2023-05-19T01:58:20.901Z,102850.19
2023-05-19T02:00:57.899Z,102848.25
2023-05-19T02:03:48.046Z,102844.66
2023-05-19T02:06:27.149Z,102845.16
2023-05-19T02:09:15.270Z,102850.63
2023-05-19T02:12:01.073Z,102849.50
2023-05-19T02:14:35.355Z,102854.97
2023-05-19T02:17:04.876Z,102851.41
2023-05-19T02:19:35.435Z,102850.84
2023-05-19T02:22:01.995Z,102846.72
2023-05-19T02:24:28.586Z,102839.59
2023-05-19T02:26:55.375Z,102842.53
2023-05-19T02:29:21.984Z,102838.91
2023-05-19T02:31:50.916Z,102843.25
2023-05-19T02:34:18.933Z,102836.41
2023-05-19T02:36:45.626Z,102834.44
2023-05-19T02:39:12.971Z,102831.13
2023-05-19T02:41:39.478Z,102824.28
2023-05-19T02:44:06.153Z,102834.31
2023-05-19T02:46:32.872Z,102827.19
2023-05-19T02:48:59.925Z,102824.72
2023-05-19T02:51:27.384Z,102826.63
2023-05-19T02:53:53.916Z,102824.72
2023-05-19T02:56:21.612Z,102821.41
2023-05-19T02:58:48.162Z,102823.84
2023-05-19T03:01:14.939Z,102817.81
2023-05-19T03:03:41.525Z,102816.66
2023-05-19T03:06:08.756Z,102812.03
2023-05-19T03:08:36.209Z,102809.59
2023-05-19T03:11:03.384Z,102812.81
2023-05-19T03:13:29.991Z,102811.41
2023-05-19T03:15:59.160Z,102810.28
2023-05-19T03:18:28.813Z,102811.59
2023-05-19T03:20:55.638Z,102816.81
2023-05-19T03:23:22.398Z,102814.06
2023-05-19T03:25:48.956Z,102821.69
2023-05-19T03:28:17.210Z,102813.19
2023-05-19T03:30:43.857Z,102813.44
2023-05-19T03:33:17.927Z,102812.53
2023-05-19T03:35:46.801Z,102813.63
2023-05-19T03:38:14.106Z,102804.84
2023-05-19T03:40:47.902Z,102811.38
2023-05-19T03:43:16.013Z,102802.06
2023-05-19T03:45:47.407Z,102804.25
2023-05-19T03:48:32.456Z,102805.91
2023-05-19T03:51:29.911Z,102800.69
2023-05-19T03:54:03.200Z,102803.66
2023-05-19T03:56:29.933Z,102808.31
2023-05-19T03:58:56.419Z,102811.03
2023-05-19T04:01:22.963Z,102810.78
2023-05-19T04:03:51.571Z,102809.69
2023-05-19T04:06:19.095Z,102814.06
2023-05-19T04:08:45.700Z,102813.50
2023-05-19T04:11:12.889Z,102808.56
2023-05-19T04:13:39.410Z,102808.56
2023-05-19T04:16:06.537Z,102811.03
2023-05-19T04:18:33.168Z,102808.88
2023-05-19T04:20:59.720Z,102806.97
2023-05-19T04:23:26.360Z,102810.53
2023-05-19T04:25:54.228Z,102820.59
2023-05-19T04:28:23.908Z,102815.16
2023-05-19T04:30:51.511Z,102815.16
2023-05-19T04:33:19.953Z,102815.44
2023-05-19T04:35:46.408Z,102819.56
2023-05-19T04:38:14.215Z,102819.06
2023-05-19T04:40:42.197Z,102812.88
2023-05-19T04:43:09.472Z,102811.53
2023-05-19T04:45:37.817Z,102818.63
2023-05-19T04:48:05.446Z,102822.44
2023-05-19T04:50:34.287Z,102816.47
2023-05-19T04:53:01.004Z,102828.78
2023-05-19T04:55:27.713Z,102818.19
2023-05-19T04:57:54.318Z,102822.06
2023-05-19T05:00:21.990Z,102830.88
2023-05-19T05:02:59.007Z,102821.69
2023-05-19T05:05:28.265Z,102827.69
2023-05-19T05:07:55.097Z,102826.44
2023-05-19T05:10:23.507Z,102827.00
2023-05-19T05:12:51.569Z,102825.25
2023-05-19T05:15:18.585Z,102834.94
2023-05-19T05:17:52.437Z,102823.91
2023-05-19T05:20:20.931Z,102828.59
2023-05-19T05:22:48.020Z,102820.97
2023-05-19T05:25:16.350Z,102827.47
2023-05-19T05:27:45.207Z,102825.44
2023-05-19T05:30:12.978Z,102830.03
2023-05-19T05:32:42.504Z,102825.25
2023-05-19T05:35:18.214Z,102822.59
2023-05-19T05:37:44.793Z,102813.59
2023-05-19T05:40:11.892Z,102818.84
2023-05-19T05:42:42.388Z,102819.78
2023-05-19T05:45:11.780Z,102812.94
2023-05-19T05:47:39.991Z,102827.50
2023-05-19T05:50:09.567Z,102829.97
2023-05-19T05:52:37.376Z,102826.16
2023-05-19T05:55:05.352Z,102823.47
2023-05-19T05:57:35.347Z,102826.38
2023-05-19T06:00:03.193Z,102819.81
2023-05-19T06:02:31.425Z,102828.56
2023-05-19T06:04:58.534Z,102826.16
2023-05-19T06:07:27.695Z,102822.88
2023-05-19T06:09:54.280Z,102815.44
2023-05-19T06:12:20.858Z,102826.47
2023-05-19T06:14:49.314Z,102822.81
2023-05-19T06:17:46.638Z,102822.59
2023-05-19T06:20:13.829Z,102819.75
2023-05-19T06:22:40.649Z,102815.50
2023-05-19T06:25:08.983Z,102811.63
2023-05-19T06:27:36.233Z,102813.56
2023-05-19T06:30:04.090Z,102816.66
2023-05-19T06:32:38.474Z,102812.03
2023-05-19T06:35:07.200Z,102808.50
2023-05-19T06:37:39.864Z,102812.53
2023-05-19T06:40:10.602Z,102814.16
2023-05-19T06:42:38.872Z,102811.44
2023-05-19T06:45:16.247Z,102810.69
2023-05-19T06:47:45.069Z,102813.16
2023-05-19T06:50:11.819Z,102808.94
2023-05-19T06:52:41.418Z,102816.66
2023-05-19T06:55:08.216Z,102810.63
2023-05-19T06:57:37.174Z,102807.38
2023-05-19T07:00:05.792Z,102809.94
2023-05-19T07:02:32.523Z,102815.47
2023-05-19T07:04:59.274Z,102813.16
2023-05-19T07:07:26.747Z,102812.72
2023-05-19T07:09:56.240Z,102807.78
2023-05-19T07:12:23.444Z,102814.34
2023-05-19T07:14:50.742Z,102810.56
2023-05-19T07:17:17.778Z,102803.03
2023-05-19T07:19:45.607Z,102807.28
2023-05-19T07:22:12.398Z,102806.47
2023-05-19T07:24:39.063Z,102810.53
2023-05-19T07:27:05.732Z,102802.56
2023-05-19T07:29:32.388Z,102809.75
2023-05-19T07:31:58.968Z,102811.13
2023-05-19T07:34:27.283Z,102814.84
2023-05-19T07:36:53.888Z,102815.13
2023-05-19T07:39:20.932Z,102809.88
2023-05-19T07:41:52.717Z,102803.94
2023-05-19T07:44:19.392Z,102820.00
2023-05-19T07:46:45.992Z,102816.94
2023-05-19T07:49:12.593Z,102810.13
2023-05-19T07:51:41.825Z,102807.81
2023-05-19T07:54:08.821Z,102806.72
2023-05-19T07:56:35.551Z,102805.09
2023-05-19T07:59:03.351Z,102802.59
2023-05-19T08:01:31.223Z,102797.72
2023-05-19T08:03:58.808Z,102790.72
2023-05-19T08:06:25.782Z,102798.84
2023-05-19T08:08:54.160Z,102786.91
2023-05-19T08:11:21.474Z,102777.19
2023-05-19T08:13:49.513Z,102790.41
2023-05-19T08:16:16.525Z,102796.97
2023-05-19T08:18:43.560Z,102785.91
2023-05-19T08:21:10.083Z,102776.00
2023-05-19T08:23:37.428Z,102787.63
2023-05-19T08:26:04.236Z,102773.44
2023-05-19T08:28:30.875Z,102770.50
2023-05-19T08:31:00.455Z,102772.63
2023-05-19T08:33:27.060Z,102768.63
2023-05-19T08:35:55.394Z,102766.19
2023-05-19T08:38:22.032Z,102757.19
2023-05-19T08:40:48.768Z,102760.06
2023-05-19T08:43:15.432Z,102760.38
2023-05-19T08:45:48.119Z,102749.72
2023-05-19T08:48:18.048Z,102751.53
2023-05-19T08:51:16.791Z,102747.50
2023-05-19T08:53:50.414Z,102748.69
2023-05-19T08:56:24.785Z,102744.09
2023-05-19T08:58:51.692Z,102742.78
2023-05-19T09:01:20.020Z,102745.44
2023-05-19T09:03:52.325Z,102743.19
2023-05-19T09:06:18.852Z,102741.22
2023-05-19T09:08:47.030Z,102730.94
2023-05-19T09:11:15.051Z,102735.06
2023-05-19T09:13:42.122Z,102737.34
2023-05-19T09:16:08.748Z,102735.47
2023-05-19T09:18:39.021Z,102740.34
2023-05-19T09:21:07.164Z,102733.72
2023-05-19T09:23:34.057Z,102728.50
2023-05-19T09:26:08.391Z,102737.88
2023-05-19T09:28:36.656Z,102734.81
2023-05-19T09:31:10.205Z,102730.63
2023-05-19T09:33:45.626Z,102732.25
2023-05-19T09:36:12.711Z,102731.19
2023-05-19T09:38:39.906Z,102713.41
2023-05-19T09:41:08.813Z,102728.31
2023-05-19T09:43:35.485Z,102722.97
2023-05-19T09:46:14.582Z,102727.00
2023-05-19T09:48:41.577Z,102721.09
2023-05-19T09:51:10.223Z,102724.59
2023-05-19T09:53:36.907Z,102722.75
2023-05-19T09:56:04.039Z,102716.50
2023-05-19T09:59:20.025Z,102718.41
2023-05-19T10:01:47.265Z,102724.34
2023-05-19T10:04:15.604Z,102718.31
2023-05-19T10:06:43.200Z,102714.97
2023-05-19T10:09:11.610Z,102716.56
2023-05-19T10:11:39.004Z,102717.47
2023-05-19T10:14:06.239Z,102716.41
2023-05-19T10:16:33.485Z,102713.75
2023-05-19T10:19:00.790Z,102711.69
2023-05-19T10:21:27.954Z,102713.28
2023-05-19T10:23:55.193Z,102707.59
2023-05-19T10:26:23.078Z,102705.97
2023-05-19T10:28:57.456Z,102701.31
2023-05-19T10:31:24.927Z,102700.75
2023-05-19T10:34:00.708Z,102698.84
2023-05-19T10:36:51.347Z,102695.41
2023-05-19T10:39:24.888Z,102687.22
2023-05-19T10:42:10.065Z,102692.88
2023-05-19T10:45:11.622Z,102683.75
2023-05-19T10:47:41.159Z,102679.22
2023-05-19T10:50:08.534Z,102683.16
2023-05-19T10:52:39.213Z,102678.78
2023-05-19T10:55:15.687Z,102682.13
2023-05-19T10:58:00.475Z,102684.00
2023-05-19T11:00:28.186Z,102681.22
2023-05-19T11:03:13.804Z,102680.31
2023-05-19T11:05:40.652Z,102681.38
2023-05-19T11:08:11.577Z,102677.00
2023-05-19T11:10:44.236Z,102673.25
2023-05-19T11:13:19.441Z,102663.25
2023-05-19T11:15:45.973Z,102667.88
2023-05-19T11:18:15.903Z,102663.78
2023-05-19T11:20:44.421Z,102665.16
2023-05-19T11:23:18.031Z,102683.88
2023-05-19T11:25:49.617Z,102676.94
2023-05-19T11:28:19.454Z,102669.28
2023-05-19T11:30:51.792Z,102669.28
2023-05-19T11:33:20.103Z,102659.94
2023-05-19T11:35:49.369Z,102655.78
2023-05-19T11:38:18.469Z,102653.13
2023-05-19T11:40:45.187Z,102654.19
2023-05-19T11:43:11.693Z,102644.25
2023-05-19T11:45:38.480Z,102649.34
2023-05-19T11:48:30.083Z,102649.78
2023-05-19T11:50:57.002Z,102645.91
2023-05-19T11:53:23.900Z,102646.94
2023-05-19T11:55:51.964Z,102637.75
2023-05-19T11:58:26.046Z,102636.75
2023-05-19T12:00:52.614Z,102634.50
2023-05-19T12:03:22.110Z,102641.47
2023-05-19T12:05:49.570Z,102638.03
2023-05-19T12:08:19.965Z,102650.03
2023-05-19T12:10:50.834Z,102643.41
2023-05-19T12:13:17.340Z,102646.69
2023-05-19T12:15:45.904Z,102645.97
2023-05-19T12:18:12.859Z,102639.81
2023-05-19T12:20:39.527Z,102642.59
2023-05-19T12:23:06.398Z,102637.91
2023-05-19T12:25:33.422Z,102639.88
2023-05-19T12:28:02.993Z,102639.66
2023-05-19T12:30:30.927Z,102635.84
2023-05-19T12:32:58.281Z,102633.59
2023-05-19T12:35:29.794Z,102633.75
2023-05-19T12:37:56.474Z,102622.28
2023-05-19T12:40:23.219Z,102621.47
2023-05-19T12:42:53.307Z,102621.41
2023-05-19T12:45:23.387Z,102617.69
2023-05-19T12:47:51.073Z,102619.16
2023-05-19T12:50:17.967Z,102611.59
2023-05-19T12:52:52.138Z,102607.84
2023-05-19T12:55:20.959Z,102605.78
2023-05-19T12:57:57.163Z,102610.41
2023-05-19T13:00:32.632Z,102597.59
2023-05-19T13:03:05.356Z,102601.66
2023-05-19T13:05:40.606Z,102605.81
2023-05-19T13:08:12.577Z,102600.41
2023-05-19T13:10:41.197Z,102593.91
2023-05-19T13:13:09.283Z,102595.41
2023-05-19T13:15:39.307Z,102598.06
2023-05-19T13:18:11.257Z,102601.41
2023-05-19T13:20:40.470Z,102595.91
2023-05-19T13:23:09.469Z,102596.25
2023-05-19T13:25:36.543Z,102590.09
2023-05-19T13:28:05.922Z,102591.31
2023-05-19T13:30:38.190Z,102588.28
2023-05-19T13:33:05.108Z,102584.50
2023-05-19T13:35:37.931Z,102588.09
2023-05-19T13:38:05.976Z,102586.50
2023-05-19T13:40:35.576Z,102573.06
2023-05-19T13:43:03.136Z,102581.38
2023-05-19T13:45:29.934Z,102565.97
2023-05-19T13:47:57.074Z,102570.09
2023-05-19T13:50:23.834Z,102559.38
2023-05-19T13:52:50.526Z,102574.31
2023-05-19T13:55:17.401Z,102562.06
2023-05-19T13:57:44.860Z,102556.94
2023-05-19T14:00:11.653Z,102569.44
2023-05-19T14:02:41.057Z,102564.22
2023-05-19T14:05:08.472Z,102555.81
2023-05-19T14:07:35.597Z,102560.09
2023-05-19T14:10:03.940Z,102561.72
2023-05-19T14:12:41.525Z,102556.31
2023-05-19T14:15:14.175Z,102555.22
2023-05-19T14:17:40.755Z,102545.63
2023-05-19T14:20:08.442Z,102555.63
2023-05-19T14:22:34.981Z,102550.94
2023-05-19T14:25:02.192Z,102554.34
2023-05-19T14:27:28.687Z,102545.84
2023-05-19T14:29:55.207Z,102538.38
2023-05-19T14:32:22.358Z,102537.56
2023-05-19T14:34:52.750Z,102529.38
2023-05-19T14:37:19.921Z,102532.28
2023-05-19T14:39:46.395Z,102535.78
2023-05-19T14:42:12.935Z,102538.22
2023-05-19T14:44:39.426Z,102528.41
2023-05-19T14:47:07.362Z,102538.84
2023-05-19T14:49:34.027Z,102534.63
2023-05-19T14:52:00.670Z,102526.44
2023-05-19T14:54:27.162Z,102526.75
2023-05-19T14:56:53.709Z,102528.47
2023-05-19T14:59:21.569Z,102520.72
2023-05-19T15:01:48.185Z,102528.13
2023-05-19T15:04:14.917Z,102520.81
2023-05-19T15:06:41.617Z,102518.84
2023-05-19T15:09:08.193Z,102521.44
2023-05-19T15:11:34.747Z,102528.94
2023-05-19T15:14:01.216Z,102524.53
2023-05-19T15:16:27.733Z,102518.31
2023-05-19T15:18:54.388Z,102515.44
2023-05-19T15:21:21.008Z,102518.94
2023-05-19T15:23:47.656Z,102512.81
2023-05-19T15:26:14.245Z,102512.63
2023-05-19T15:28:40.941Z,102522.75
2023-05-19T15:31:07.494Z,102510.22
2023-05-19T15:33:34.065Z,102514.13
2023-05-19T15:36:00.650Z,102518.44
2023-05-19T15:38:28.492Z,102502.81
2023-05-19T15:40:56.489Z,102515.59
2023-05-19T15:43:23.071Z,102507.25
2023-05-19T15:45:52.108Z,102508.69
2023-05-19T15:48:19.115Z,102494.09
2023-05-19T15:50:45.771Z,102503.47
2023-05-19T15:53:13.589Z,102504.06
2023-05-19T15:55:41.354Z,102502.09
2023-05-19T15:58:08.772Z,102505.78
2023-05-19T16:00:35.689Z,102482.88
2023-05-19T16:03:02.478Z,102494.41
2023-05-19T16:05:29.100Z,102483.22
2023-05-19T16:07:56.186Z,102499.41
2023-05-19T16:10:22.689Z,102489.22
2023-05-19T16:12:49.498Z,102489.53
2023-05-19T16:15:16.083Z,102485.16
2023-05-19T16:17:44.464Z,102477.06
2023-05-19T16:20:11.497Z,102480.75
2023-05-19T16:22:38.461Z,102475.38
2023-05-19T16:25:05.624Z,102470.72
2023-05-19T16:27:34.522Z,102477.56
2023-05-19T16:30:02.477Z,102467.94
2023-05-19T16:32:28.973Z,102459.25
2023-05-19T16:34:55.494Z,102466.56
2023-05-19T16:37:21.997Z,102463.00
2023-05-19T16:39:48.594Z,102469.66
2023-05-19T16:42:15.100Z,102472.28
2023-05-19T16:44:43.193Z,102469.03
2023-05-19T16:47:09.770Z,102467.00
2023-05-19T16:49:36.312Z,102476.84
2023-05-19T16:52:02.886Z,102478.84
2023-05-19T16:54:29.357Z,102477.03
2023-05-19T16:56:55.861Z,102482.69
2023-05-19T16:59:32.185Z,102481.75
2023-05-19T17:01:58.857Z,102470.81
2023-05-19T17:04:26.201Z,102472.34
2023-05-19T17:07:15.686Z,102467.59
2023-05-19T17:09:48.653Z,102479.88
2023-05-19T17:12:15.271Z,102475.25
2023-05-19T17:14:43.495Z,102478.31
2023-05-19T17:17:13.500Z,102472.75
2023-05-19T17:19:40.178Z,102475.31
2023-05-19T17:22:06.859Z,102481.47
2023-05-19T17:24:45.903Z,102474.97
2023-05-19T17:27:15.059Z,102474.88
2023-05-19T17:29:41.747Z,102475.31
2023-05-19T17:32:18.555Z,102475.53
2023-05-19T17:34:45.239Z,102481.56
2023-05-19T17:37:11.852Z,102469.63
2023-05-19T17:39:38.529Z,102472.75
2023-05-19T17:42:18.522Z,102475.78
2023-05-19T17:44:45.147Z,102478.91
2023-05-19T17:47:36.891Z,102473.03
2023-05-19T17:50:06.133Z,102478.34
2023-05-19T17:52:33.984Z,102477.41
2023-05-19T17:55:00.894Z,102478.22
2023-05-19T17:57:52.964Z,102474.50
2023-05-19T18:00:28.792Z,102477.28
2023-05-19T18:02:57.284Z,102490.28
2023-05-19T18:05:24.426Z,102487.03
2023-05-19T18:08:04.987Z,102486.44
2023-05-19T18:10:35.974Z,102482.25
2023-05-19T18:13:07.954Z,102486.16
2023-05-19T18:15:36.062Z,102485.09
2023-05-19T18:18:14.756Z,102490.91
2023-05-19T18:20:44.708Z,102492.97
2023-05-19T18:23:11.475Z,102499.06
2023-05-19T18:25:38.183Z,102497.19
2023-05-19T18:28:04.988Z,102497.63
2023-05-19T18:31:17.418Z,102500.97
2023-05-19T18:33:44.363Z,102503.47
2023-05-19T18:36:16.451Z,102503.03
2023-05-19T18:38:43.150Z,102503.13
2023-05-19T18:41:09.775Z,102499.06
2023-05-19T18:43:39.504Z,102510.84
2023-05-19T18:46:06.657Z,102502.03
2023-05-19T18:48:33.515Z,102513.06
2023-05-19T18:51:00.557Z,102518.69
2023-05-19T18:53:27.264Z,102519.03
2023-05-19T18:55:53.900Z,102517.94
2023-05-19T18:58:46.124Z,102510.94
2023-05-19T19:01:16.241Z,102519.94
2023-05-19T19:03:43.711Z,102510.50
2023-05-19T19:06:11.018Z,102522.97
2023-05-19T19:08:39.243Z,102520.84
2023-05-19T19:11:09.280Z,102519.41
2023-05-19T19:13:36.274Z,102525.81
2023-05-19T19:16:03.423Z,102522.56
2023-05-19T19:18:30.145Z,102522.06
2023-05-19T19:20:57.644Z,102525.16
2023-05-19T19:23:24.477Z,102528.47
2023-05-19T19:25:51.322Z,102536.66
2023-05-19T19:28:17.994Z,102531.44
2023-05-19T19:30:46.115Z,102545.81
2023-05-19T19:33:12.743Z,102539.94
2023-05-19T19:35:39.377Z,102541.91
2023-05-19T19:38:31.155Z,102543.69
2023-05-19T19:41:00.767Z,102542.59
2023-05-19T19:43:27.393Z,102555.81
2023-05-19T19:46:07.002Z,102550.59
2023-05-19T19:49:01.936Z,102564.28
2023-05-19T19:51:28.528Z,102562.00
2023-05-19T19:53:55.368Z,102562.03
2023-05-19T19:56:24.529Z,102561.22
2023-05-19T19:58:51.234Z,102574.91
2023-05-19T20:01:20.477Z,102567.91
2023-05-19T20:03:47.985Z,102577.66
2023-05-19T20:06:14.897Z,102575.34
2023-05-19T20:08:41.523Z,102578.75
2023-05-19T20:11:08.258Z,102579.91
2023-05-19T20:13:34.826Z,102570.16
2023-05-19T20:16:01.592Z,102580.06
2023-05-19T20:18:29.675Z,102576.94
2023-05-19T20:20:56.677Z,102581.19
2023-05-19T20:23:23.316Z,102584.72
2023-05-19T20:26:10.926Z,102588.13
2023-05-19T20:28:38.948Z,102585.31
2023-05-19T20:31:06.228Z,102592.91
2023-05-19T20:33:32.870Z,102594.88
2023-05-19T20:36:02.157Z,102589.31
2023-05-19T20:38:31.178Z,102597.75
2023-05-19T20:40:57.777Z,102602.59
2023-05-19T20:43:24.357Z,102611.34
2023-05-19T20:45:51.345Z,102613.13
2023-05-19T20:48:17.933Z,102609.97
2023-05-19T20:50:44.485Z,102605.91
2023-05-19T20:53:11.305Z,102609.28
2023-05-19T20:55:38.998Z,102609.09
2023-05-19T20:58:06.130Z,102616.84
2023-05-19T21:00:33.058Z,102608.34
2023-05-19T21:03:00.048Z,102613.53
2023-05-19T21:05:26.704Z,102616.59
2023-05-19T21:07:53.457Z,102608.63
2023-05-19T21:10:20.027Z,102614.28
2023-05-19T21:12:46.925Z,102613.25
2023-05-19T21:15:14.839Z,102616.75
2023-05-19T21:17:41.575Z,102616.88
2023-05-19T21:20:08.788Z,102618.00
2023-05-19T21:22:35.867Z,102617.00
2023-05-19T21:25:02.591Z,102623.69
2023-05-19T21:27:29.144Z,102632.59
2023-05-19T21:29:55.845Z,102633.53
2023-05-19T21:32:22.544Z,102627.91
2023-05-19T21:34:49.380Z,102624.44
2023-05-19T21:37:40.642Z,102632.00
2023-05-19T21:40:16.247Z,102629.03
2023-05-19T21:42:42.857Z,102638.78
2023-05-19T21:45:11.995Z,102638.91
2023-05-19T21:47:45.080Z,102638.38
2023-05-19T21:50:17.340Z,102629.41
2023-05-19T21:52:43.945Z,102635.22
2023-05-19T21:55:16.921Z,102641.06
2023-05-19T21:57:43.469Z,102644.69
2023-05-19T22:00:13.164Z,102634.88
2023-05-19T22:02:40.516Z,102642.13
2023-05-19T22:05:12.881Z,102642.28
2023-05-19T22:07:39.555Z,102639.59
2023-05-19T22:10:06.409Z,102642.16
2023-05-19T22:12:33.162Z,102636.72
2023-05-19T22:15:03.607Z,102636.00
2023-05-19T22:17:30.222Z,102638.34
2023-05-19T22:19:56.996Z,102638.16
2023-05-19T22:22:23.732Z,102633.78
2023-05-19T22:24:50.929Z,102631.84
2023-05-19T22:27:17.598Z,102635.72
2023-05-19T22:29:56.257Z,102634.06
2023-05-19T22:32:22.815Z,102648.47
2023-05-19T22:35:01.922Z,102635.06
2023-05-19T22:40:19.762Z,102639.94
2023-05-19T22:43:01.128Z,102644.94
2023-05-19T22:45:27.765Z,102638.41
2023-05-19T22:48:06.683Z,102634.63
2023-05-19T22:50:33.446Z,102644.63
2023-05-19T22:53:00.146Z,102646.88
2023-05-19T22:55:29.391Z,102649.41
2023-05-19T22:57:56.303Z,102636.53
2023-05-19T23:00:31.539Z,102645.38
2023-05-19T23:03:09.767Z,102640.56
2023-05-19T23:05:36.506Z,102639.22
2023-05-19T23:08:03.246Z,102645.13
2023-05-19T23:10:29.796Z,102636.94
2023-05-19T23:12:56.327Z,102634.25
2023-05-19T23:15:26.907Z,102640.63
2023-05-19T23:17:53.671Z,102637.66
2023-05-19T23:20:20.231Z,102636.03
2023-05-19T23:22:46.771Z,102637.84
2023-05-19T23:25:14.714Z,102639.53
2023-05-19T23:27:41.301Z,102634.34
2023-05-19T23:30:08.462Z,102635.00
2023-05-19T23:32:35.129Z,102637.53
2023-05-19T23:35:16.575Z,102642.88
2023-05-19T23:37:43.216Z,102634.91
2023-05-19T23:40:10.253Z,102633.56
2023-05-19T23:42:37.183Z,102632.53
2023-05-19T23:45:04.605Z,102634.53
2023-05-19T23:47:31.313Z,102635.66
2023-05-19T23:49:57.852Z,102636.81
2023-05-19T23:52:27.465Z,102634.66
2023-05-19T23:54:54.179Z,102634.94
2023-05-19T23:57:20.691Z,102627.28
2023-05-19T23:59:47.367Z,102622.94
